Time;durP1;ratioP1;P1;durP2;ratioP2;P2;SDS_P1;SDS_P2;PMS_P1;PMS_P2;Temp;Humidity;BMP_temperature;BMP_pressure;BME280_temperature;BME280_humidity;BME280_pressure;Samples;Min_cycle;Max_cycle;Signal;HPM_P1;HPM_P2
2023/12/20 00:01:26;;;;;;;203.93;76.17;;;;;;;;;;4908955;29;20251;-73
2023/12/20 00:03:51;;;;;;;192.13;74.47;;;;;;;;;;4927349;29;20333;-72
2023/12/20 00:06:16;;;;;;;192.00;73.03;;;;;;;;;;4926249;29;20288;-72
2023/12/20 00:08:42;;;;;;;189.77;72.30;;;;;;;;;;4926518;29;20221;-73
2023/12/20 00:11:07;;;;;;;203.10;75.40;;;;;;;;;;4910617;29;20232;-73
2023/12/20 00:13:32;;;;;;;190.53;74.73;;;;;;;;;;4925975;29;20233;-72
2023/12/20 00:15:58;;;;;;;195.87;75.10;;;;;;;;;;4926799;29;20720;-73
2023/12/20 00:18:23;;;;;;;193.63;76.00;;;;;;;;;;4909997;29;20225;-73
2023/12/20 00:20:49;;;;;;;194.87;73.60;;;;;;;;;;4926149;29;20221;-72
2023/12/20 00:23:14;;;;;;;188.30;70.17;;;;;;;;;;4927683;29;20735;-72
2023/12/20 00:25:39;;;;;;;191.20;69.83;;;;;;;;;;4910207;29;20240;-72
2023/12/20 00:28:05;;;;;;;177.67;65.93;;;;;;;;;;4926383;29;20235;-73
2023/12/20 00:30:30;;;;;;;176.60;65.60;;;;;;;;;;4926803;29;21056;-73
2023/12/20 00:32:56;;;;;;;157.40;61.77;;;;;;;;;;4926711;29;20237;-72
2023/12/20 00:35:21;;;;;;;174.47;63.97;;;;;;;;;;4927025;29;20603;-73
2023/12/20 00:37:46;;;;;;;165.33;62.70;;;;;;;;;;4910589;29;20225;-72
2023/12/20 00:40:12;;;;;;;166.53;62.33;;;;;;;;;;4921040;29;20240;-72
2023/12/20 00:42:37;;;;;;;159.43;61.53;;;;;;;;;;4928458;29;20224;-72
2023/12/20 00:45:04;;;;;;;161.97;61.37;;;;;;;;;;4926068;29;20237;-72
2023/12/20 00:47:30;;;;;;;160.33;62.50;;;;;;;;;;4924923;29;20316;-73
2023/12/20 00:49:55;;;;;;;170.43;63.03;;;;;;;;;;4925606;29;20368;-73
2023/12/20 00:52:22;;;;;;;173.83;62.80;;;;;;;;;;4925391;29;20225;-72
2023/12/20 00:54:47;;;;;;;163.67;64.00;;;;;;;;;;4909474;29;20993;-73
2023/12/20 00:57:13;;;;;;;191.60;72.70;;;;;;;;;;4910187;29;20270;-73
2023/12/20 00:59:38;;;;;;;231.13;87.77;;;;;;;;;;4925453;29;20233;-72
2023/12/20 01:02:03;;;;;;;284.63;101.97;;;;;;;;;;4925642;29;20316;-72
2023/12/20 01:04:29;;;;;;;311.10;110.73;;;;;;;;;;4909576;29;20273;-72
2023/12/20 01:06:54;;;;;;;328.10;114.83;;;;;;;;;;4927027;29;20249;-72
2023/12/20 01:09:19;;;;;;;370.07;125.73;;;;;;;;;;4923211;29;20297;-71
2023/12/20 01:11:47;;;;;;;346.47;118.17;;;;;;;;;;4925841;29;20229;-72
2023/12/20 01:14:12;;;;;;;350.20;120.20;;;;;;;;;;4925186;29;20264;-72
2023/12/20 01:16:38;;;;;;;361.80;128.03;;;;;;;;;;4924291;29;20738;-71
2023/12/20 01:19:06;;;;;;;374.87;127.90;;;;;;;;;;4924899;29;20229;-71
2023/12/20 01:21:32;;;;;;;355.73;124.77;;;;;;;;;;4925078;29;20253;-72
2023/12/20 01:23:57;;;;;;;366.23;129.83;;;;;;;;;;4925334;29;20699;-72
2023/12/20 01:26:22;;;;;;;367.97;126.33;;;;;;;;;;4908653;29;20230;-72
2023/12/20 01:28:47;;;;;;;353.70;125.30;;;;;;;;;;4926446;29;20860;-72
2023/12/20 01:31:13;;;;;;;358.47;126.63;;;;;;;;;;4909848;29;20229;-72
2023/12/20 01:33:38;;;;;;;349.03;121.30;;;;;;;;;;4925983;29;20640;-72
2023/12/20 01:36:04;;;;;;;321.87;113.80;;;;;;;;;;4924254;29;20608;-72
2023/12/20 01:38:29;;;;;;;328.93;113.40;;;;;;;;;;4924668;29;20920;-72
2023/12/20 01:40:55;;;;;;;310.70;111.67;;;;;;;;;;4926791;29;20257;-72
2023/12/20 01:43:20;;;;;;;324.27;115.57;;;;;;;;;;4923782;29;20240;-73
2023/12/20 01:45:46;;;;;;;317.70;112.37;;;;;;;;;;4908243;29;20214;-72
2023/12/20 01:48:11;;;;;;;321.27;112.60;;;;;;;;;;4924804;29;20237;-72
2023/12/20 01:50:37;;;;;;;297.07;107.77;;;;;;;;;;4916666;29;20267;-73
2023/12/20 01:53:03;;;;;;;323.90;111.37;;;;;;;;;;4908231;29;20238;-73
2023/12/20 01:55:30;;;;;;;307.47;110.47;;;;;;;;;;4922475;29;20300;-73
2023/12/20 01:57:55;;;;;;;312.80;109.17;;;;;;;;;;4924120;29;20288;-72
2023/12/20 02:00:23;;;;;;;323.10;111.87;;;;;;;;;;4908559;29;20229;-72
2023/12/20 02:02:49;;;;;;;318.30;108.90;;;;;;;;;;4924199;29;20233;-72
2023/12/20 02:05:15;;;;;;;286.07;103.23;;;;;;;;;;4924174;29;20233;-72
2023/12/20 02:07:40;;;;;;;304.57;108.43;;;;;;;;;;4907988;29;20233;-72
2023/12/20 02:10:05;;;;;;;289.87;103.53;;;;;;;;;;4905510;29;20225;-73
2023/12/20 02:12:31;;;;;;;273.87;96.70;;;;;;;;;;4906958;29;20918;-72
2023/12/20 02:14:56;;;;;;;248.60;89.43;;;;;;;;;;4924506;29;20229;-72
2023/12/20 02:17:21;;;;;;;238.83;86.53;;;;;;;;;;4925057;29;20221;-72
2023/12/20 02:19:47;;;;;;;255.33;89.73;;;;;;;;;;4924777;29;20243;-72
2023/12/20 02:22:12;;;;;;;253.70;87.30;;;;;;;;;;4907923;29;20245;-72
2023/12/20 02:24:38;;;;;;;233.67;84.80;;;;;;;;;;4923805;29;20312;-72
2023/12/20 02:27:03;;;;;;;236.93;84.70;;;;;;;;;;4924485;29;20225;-73
2023/12/20 02:29:28;;;;;;;233.90;83.93;;;;;;;;;;4923987;29;20233;-72
2023/12/20 02:31:54;;;;;;;224.93;80.67;;;;;;;;;;4923855;29;20230;-72
2023/12/20 02:34:19;;;;;;;221.67;78.47;;;;;;;;;;4925780;29;20250;-72
2023/12/20 02:36:44;;;;;;;221.03;75.20;;;;;;;;;;4923135;29;20284;-72
2023/12/20 02:39:10;;;;;;;202.40;73.40;;;;;;;;;;4925737;29;20309;-72
2023/12/20 02:41:35;;;;;;;220.73;75.23;;;;;;;;;;4907859;29;20288;-72
2023/12/20 02:44:01;;;;;;;206.07;73.60;;;;;;;;;;4908349;29;20236;-72
2023/12/20 02:46:26;;;;;;;204.93;71.93;;;;;;;;;;4924157;29;20225;-71
2023/12/20 02:48:52;;;;;;;197.07;69.63;;;;;;;;;;4925822;29;20217;-72
2023/12/20 02:51:17;;;;;;;206.57;70.13;;;;;;;;;;4922111;29;20213;-73
2023/12/20 02:53:42;;;;;;;187.13;65.97;;;;;;;;;;4923930;29;20249;-72
2023/12/20 02:56:08;;;;;;;188.57;64.87;;;;;;;;;;4924168;29;20217;-71
2023/12/20 02:58:33;;;;;;;193.60;63.50;;;;;;;;;;4919022;29;20224;-73
2023/12/20 03:00:59;;;;;;;187.93;61.40;;;;;;;;;;4925313;29;20376;-72
2023/12/20 03:03:25;;;;;;;185.43;59.07;;;;;;;;;;4908023;29;20233;-72
2023/12/20 03:05:50;;;;;;;218.67;55.17;;;;;;;;;;4923879;29;20236;-71
2023/12/20 03:08:15;;;;;;;200.10;51.80;;;;;;;;;;4926074;29;20221;-72
2023/12/20 03:10:41;;;;;;;182.37;52.07;;;;;;;;;;4911640;29;20233;-72
2023/12/20 03:13:06;;;;;;;224.63;53.33;;;;;;;;;;4911596;29;20720;-73
2023/12/20 03:15:31;;;;;;;164.87;51.23;;;;;;;;;;4911469;29;20236;-73
2023/12/20 03:17:58;;;;;;;154.43;46.03;;;;;;;;;;4927872;29;20222;-73
2023/12/20 03:20:25;;;;;;;240.27;50.70;;;;;;;;;;4910565;29;20233;-72
2023/12/20 03:22:51;;;;;;;185.87;50.50;;;;;;;;;;4927011;29;20344;-72
2023/12/20 03:25:16;;;;;;;252.27;50.50;;;;;;;;;;4928168;29;20308;-73
2023/12/20 03:27:41;;;;;;;205.13;48.07;;;;;;;;;;4928848;29;20232;-73
2023/12/20 03:30:07;;;;;;;164.33;47.30;;;;;;;;;;4926803;29;20229;-74
2023/12/20 03:32:32;;;;;;;164.90;47.73;;;;;;;;;;4926251;29;20699;-73
2023/12/20 03:34:58;;;;;;;161.70;47.87;;;;;;;;;;4910309;29;20719;-72
2023/12/20 03:37:23;;;;;;;178.10;48.03;;;;;;;;;;4927990;29;20236;-74
2023/12/20 03:39:48;;;;;;;155.50;47.07;;;;;;;;;;4911158;29;20252;-73
2023/12/20 03:42:14;;;;;;;178.63;49.03;;;;;;;;;;4926509;29;20233;-73
2023/12/20 03:44:40;;;;;;;166.50;46.90;;;;;;;;;;4926954;29;20712;-73
2023/12/20 03:47:05;;;;;;;196.83;45.60;;;;;;;;;;4927797;29;20229;-73
2023/12/20 03:49:30;;;;;;;160.77;44.93;;;;;;;;;;4926436;29;20308;-74
2023/12/20 03:51:56;;;;;;;167.77;46.50;;;;;;;;;;4925686;29;20228;-73
2023/12/20 03:54:21;;;;;;;252.47;43.63;;;;;;;;;;4926387;29;20644;-73
2023/12/20 03:56:46;;;;;;;185.87;44.57;;;;;;;;;;4910784;29;20889;-74
2023/12/20 03:59:12;;;;;;;238.53;44.13;;;;;;;;;;4926001;29;20225;-73
2023/12/20 04:01:37;;;;;;;150.47;43.57;;;;;;;;;;4926059;29;20237;-73
2023/12/20 04:04:02;;;;;;;163.23;42.87;;;;;;;;;;4923919;29;21210;-73
2023/12/20 04:06:28;;;;;;;161.43;44.60;;;;;;;;;;4909768;29;20289;-73
2023/12/20 04:08:53;;;;;;;172.73;44.97;;;;;;;;;;4911174;29;20610;-73
2023/12/20 04:11:19;;;;;;;181.90;45.60;;;;;;;;;;4925908;29;20995;-73
2023/12/20 04:13:44;;;;;;;175.43;44.50;;;;;;;;;;4928284;29;20872;-73
2023/12/20 04:16:09;;;;;;;173.33;44.53;;;;;;;;;;4926765;29;20305;-73
2023/12/20 04:18:35;;;;;;;179.93;45.97;;;;;;;;;;4909864;29;20831;-73
2023/12/20 04:21:00;;;;;;;134.10;44.43;;;;;;;;;;4910096;29;20229;-73
2023/12/20 04:23:25;;;;;;;137.20;44.13;;;;;;;;;;4923855;29;20257;-73
2023/12/20 04:25:51;;;;;;;144.03;45.37;;;;;;;;;;4927771;29;20670;-73
2023/12/20 04:28:19;;;;;;;155.27;44.93;;;;;;;;;;4926627;29;20222;-73
2023/12/20 04:30:44;;;;;;;133.20;44.33;;;;;;;;;;4925687;29;20773;-71
2023/12/20 04:33:10;;;;;;;140.30;45.23;;;;;;;;;;4927986;29;20237;-72
2023/12/20 04:35:35;;;;;;;145.10;43.27;;;;;;;;;;4927117;29;20333;-72
2023/12/20 04:38:04;;;;;;;144.47;44.50;;;;;;;;;;4926034;29;20225;-73
2023/12/20 04:40:29;;;;;;;148.13;46.03;;;;;;;;;;4905711;29;20249;-73
2023/12/20 04:42:54;;;;;;;150.37;46.23;;;;;;;;;;4904367;29;20229;-73
2023/12/20 04:45:20;;;;;;;161.53;48.80;;;;;;;;;;4927967;28;20241;-73
2023/12/20 04:47:46;;;;;;;145.60;49.30;;;;;;;;;;4927479;29;20226;-73
2023/12/20 04:50:13;;;;;;;146.93;49.63;;;;;;;;;;4925633;29;20810;-74
2023/12/20 04:52:38;;;;;;;134.03;49.63;;;;;;;;;;4917255;29;20235;-73
2023/12/20 04:55:04;;;;;;;127.63;48.07;;;;;;;;;;4925674;29;20248;-73
2023/12/20 04:57:29;;;;;;;135.23;49.00;;;;;;;;;;4914393;29;20285;-73
2023/12/20 04:59:55;;;;;;;131.97;48.63;;;;;;;;;;4906083;29;20704;-72
2023/12/20 05:02:20;;;;;;;155.10;50.93;;;;;;;;;;4922880;29;20624;-72
2023/12/20 05:04:46;;;;;;;152.60;53.13;;;;;;;;;;4908813;29;20336;-72
2023/12/20 05:07:11;;;;;;;165.10;53.93;;;;;;;;;;4925705;29;20288;-72
2023/12/20 05:09:36;;;;;;;154.17;53.57;;;;;;;;;;4925172;29;20727;-73
2023/12/20 05:12:02;;;;;;;200.83;58.00;;;;;;;;;;4925058;29;20289;-73
2023/12/20 05:14:27;;;;;;;224.50;61.17;;;;;;;;;;4923424;29;20256;-73
2023/12/20 05:16:53;;;;;;;184.03;58.23;;;;;;;;;;4925282;29;20706;-73
2023/12/20 05:19:18;;;;;;;253.83;54.93;;;;;;;;;;4924944;29;20225;-72
2023/12/20 05:21:43;;;;;;;185.80;54.87;;;;;;;;;;4909786;29;20225;-73
2023/12/20 05:24:09;;;;;;;355.57;64.00;;;;;;;;;;4926536;29;20230;-73
2023/12/20 05:26:34;;;;;;;388.30;66.60;;;;;;;;;;4925965;29;20230;-73
2023/12/20 05:28:59;;;;;;;280.90;63.97;;;;;;;;;;4925222;29;20236;-73
2023/12/20 05:31:25;;;;;;;283.00;62.53;;;;;;;;;;4924942;29;20339;-74
2023/12/20 05:33:50;;;;;;;247.77;61.13;;;;;;;;;;4925137;29;20869;-73
2023/12/20 05:36:15;;;;;;;246.13;57.73;;;;;;;;;;4916385;29;20221;-74
2023/12/20 05:38:40;;;;;;;195.37;55.20;;;;;;;;;;4905365;29;20352;-74
2023/12/20 05:41:06;;;;;;;170.40;54.43;;;;;;;;;;4906421;29;20222;-73
2023/12/20 05:43:31;;;;;;;179.63;52.73;;;;;;;;;;4889748;29;20237;-73
2023/12/20 05:45:57;;;;;;;161.40;53.63;;;;;;;;;;4890249;29;20226;-73
2023/12/20 05:48:23;;;;;;;240.87;53.90;;;;;;;;;;4891826;29;20214;-72
2023/12/20 05:50:49;;;;;;;163.30;50.37;;;;;;;;;;4892890;29;20613;-72
2023/12/20 05:53:14;;;;;;;148.10;51.50;;;;;;;;;;4905095;29;20265;-71
2023/12/20 05:55:40;;;;;;;257.97;55.03;;;;;;;;;;4888273;29;20249;-72
2023/12/20 05:58:05;;;;;;;179.07;51.20;;;;;;;;;;4906695;29;20863;-72
2023/12/20 06:00:30;;;;;;;186.50;49.57;;;;;;;;;;4904976;29;20263;-72
2023/12/20 06:02:55;;;;;;;187.30;50.67;;;;;;;;;;4889265;29;20233;-72
2023/12/20 06:05:21;;;;;;;145.50;48.23;;;;;;;;;;4906489;29;20265;-73
2023/12/20 06:07:48;;;;;;;157.70;49.77;;;;;;;;;;4891428;29;20281;-72
2023/12/20 06:10:13;;;;;;;203.60;51.17;;;;;;;;;;4888278;29;20226;-72
2023/12/20 06:12:39;;;;;;;141.70;48.37;;;;;;;;;;4905282;29;20218;-71
2023/12/20 06:15:05;;;;;;;210.83;51.17;;;;;;;;;;4919415;29;20225;-71
2023/12/20 06:17:31;;;;;;;243.63;50.87;;;;;;;;;;4923307;29;20229;-72
2023/12/20 06:19:56;;;;;;;169.53;48.40;;;;;;;;;;4924012;29;20225;-71
2023/12/20 06:22:22;;;;;;;277.97;49.87;;;;;;;;;;4923933;29;20284;-73
2023/12/20 06:24:47;;;;;;;214.23;49.77;;;;;;;;;;4925869;29;20230;-71
2023/12/20 06:27:12;;;;;;;165.30;47.80;;;;;;;;;;4925643;29;20233;-72
2023/12/20 06:29:38;;;;;;;241.43;49.23;;;;;;;;;;4907927;29;20612;-72
2023/12/20 06:32:03;;;;;;;192.60;50.30;;;;;;;;;;4907742;29;20229;-72
2023/12/20 06:34:29;;;;;;;187.50;48.50;;;;;;;;;;4922948;29;20248;-73
2023/12/20 06:36:54;;;;;;;193.57;49.17;;;;;;;;;;4923899;29;20368;-73
2023/12/20 06:39:19;;;;;;;147.87;49.47;;;;;;;;;;4925213;29;21034;-73
2023/12/20 06:41:45;;;;;;;132.23;43.77;;;;;;;;;;4923754;29;20225;-71
2023/12/20 06:44:10;;;;;;;124.33;44.47;;;;;;;;;;4927241;29;20236;-70
2023/12/20 06:46:35;;;;;;;122.47;44.20;;;;;;;;;;4927409;29;20688;-72
2023/12/20 06:49:01;;;;;;;128.87;46.23;;;;;;;;;;4912244;29;20667;-70
2023/12/20 06:51:26;;;;;;;135.37;47.43;;;;;;;;;;4927417;29;20233;-71
2023/12/20 06:53:52;;;;;;;140.30;46.13;;;;;;;;;;4927960;29;20229;-69
2023/12/20 06:56:17;;;;;;;122.83;44.63;;;;;;;;;;4927725;29;20222;-71
2023/12/20 06:58:43;;;;;;;143.90;46.47;;;;;;;;;;4927693;29;20735;-71
2023/12/20 07:01:14;;;;;;;143.43;46.40;;;;;;;;;;4928120;29;20229;-71
2023/12/20 07:03:40;;;;;;;138.70;46.97;;;;;;;;;;4909877;29;20328;-72
2023/12/20 07:06:05;;;;;;;227.80;48.90;;;;;;;;;;4903335;29;20332;-72
2023/12/20 07:08:31;;;;;;;244.17;47.17;;;;;;;;;;4927114;29;20238;-72
2023/12/20 07:10:56;;;;;;;145.23;48.00;;;;;;;;;;4911966;29;20308;-71
2023/12/20 07:13:22;;;;;;;163.80;46.27;;;;;;;;;;4928290;29;20241;-71
2023/12/20 07:15:48;;;;;;;157.70;47.63;;;;;;;;;;4927822;29;20253;-72
2023/12/20 07:18:13;;;;;;;155.57;47.60;;;;;;;;;;4907970;29;20233;-71
2023/12/20 07:20:38;;;;;;;156.57;47.90;;;;;;;;;;4940300;28;20908;-71
2023/12/20 07:23:04;;;;;;;150.30;46.37;;;;;;;;;;4926742;29;20794;-72
2023/12/20 07:25:32;;;;;;;156.40;49.97;;;;;;;;;;4925794;29;20646;-72
2023/12/20 07:27:57;;;;;;;235.50;51.20;;;;;;;;;;4925081;29;20317;-71
2023/12/20 07:30:22;;;;;;;148.60;48.33;;;;;;;;;;4924903;29;20324;-72
2023/12/20 07:32:48;;;;;;;190.60;50.17;;;;;;;;;;4927400;29;20249;-72
2023/12/20 07:35:13;;;;;;;179.53;48.63;;;;;;;;;;4926712;29;20225;-72
2023/12/20 07:37:39;;;;;;;164.30;48.53;;;;;;;;;;4920242;29;20621;-72
2023/12/20 07:40:04;;;;;;;166.57;49.97;;;;;;;;;;4926549;29;20736;-72
2023/12/20 07:42:30;;;;;;;163.80;49.30;;;;;;;;;;4927030;29;20229;-72
2023/12/20 07:44:55;;;;;;;236.63;49.40;;;;;;;;;;4928496;29;20225;-72
2023/12/20 07:47:21;;;;;;;169.73;48.00;;;;;;;;;;4926244;29;20230;-72
2023/12/20 07:49:48;;;;;;;159.67;48.17;;;;;;;;;;4926520;29;20217;-72
2023/12/20 07:52:13;;;;;;;157.37;49.17;;;;;;;;;;4926452;29;21047;-71
2023/12/20 07:54:39;;;;;;;183.30;52.13;;;;;;;;;;4924973;29;20237;-72
2023/12/20 07:57:04;;;;;;;154.30;50.10;;;;;;;;;;4910026;29;20236;-72
2023/12/20 07:59:29;;;;;;;163.70;50.20;;;;;;;;;;4925533;29;20229;-71
2023/12/20 08:01:55;;;;;;;149.33;49.87;;;;;;;;;;4926667;29;21567;-73
2023/12/20 08:04:20;;;;;;;154.93;48.90;;;;;;;;;;4927782;29;20248;-72
2023/12/20 08:06:46;;;;;;;155.30;50.57;;;;;;;;;;4910540;29;20230;-73
2023/12/20 08:09:11;;;;;;;140.20;49.53;;;;;;;;;;4907447;29;20264;-73
2023/12/20 08:11:36;;;;;;;130.40;46.63;;;;;;;;;;4925497;29;20629;-72
2023/12/20 08:14:02;;;;;;;125.57;44.87;;;;;;;;;;4926638;29;20237;-72
2023/12/20 08:16:27;;;;;;;126.13;45.87;;;;;;;;;;4925043;29;20238;-72
2023/12/20 08:18:52;;;;;;;126.03;45.13;;;;;;;;;;4926307;29;20225;-71
2023/12/20 08:21:20;;;;;;;129.47;44.67;;;;;;;;;;4925191;29;20308;-72
2023/12/20 08:23:46;;;;;;;128.00;45.00;;;;;;;;;;4909501;29;20798;-71
2023/12/20 08:26:11;;;;;;;125.10;45.33;;;;;;;;;;4926486;29;20228;-72
2023/12/20 08:28:36;;;;;;;116.63;42.03;;;;;;;;;;4925557;29;20232;-72
2023/12/20 08:31:02;;;;;;;110.07;40.60;;;;;;;;;;4909984;29;20232;-72
2023/12/20 08:33:27;;;;;;;140.93;48.97;;;;;;;;;;4925272;29;20237;-72
2023/12/20 08:35:52;;;;;;;137.43;47.70;;;;;;;;;;4925907;29;20236;-72
2023/12/20 08:38:17;;;;;;;128.00;46.20;;;;;;;;;;4925458;29;20362;-72
2023/12/20 08:40:43;;;;;;;140.20;49.50;;;;;;;;;;4926125;29;20700;-73
2023/12/20 08:43:08;;;;;;;146.63;49.27;;;;;;;;;;4926184;29;20247;-73
2023/12/20 08:45:34;;;;;;;134.43;47.20;;;;;;;;;;4909509;29;20734;-72
2023/12/20 08:47:59;;;;;;;143.73;48.23;;;;;;;;;;4925659;29;20607;-72
2023/12/20 08:50:25;;;;;;;135.20;47.77;;;;;;;;;;4925550;29;20237;-72
2023/12/20 08:52:50;;;;;;;127.73;45.27;;;;;;;;;;4926043;29;20225;-72
2023/12/20 08:55:17;;;;;;;137.17;45.87;;;;;;;;;;4925325;29;20313;-72
2023/12/20 08:57:43;;;;;;;155.10;46.33;;;;;;;;;;4909525;29;20226;-73
2023/12/20 09:00:08;;;;;;;138.67;44.30;;;;;;;;;;4925453;29;20244;-72
2023/12/20 09:02:35;;;;;;;151.73;45.17;;;;;;;;;;4926539;29;20226;-72
2023/12/20 09:05:01;;;;;;;157.93;46.57;;;;;;;;;;4908356;29;20621;-72
2023/12/20 09:07:27;;;;;;;150.73;46.03;;;;;;;;;;4924699;29;20241;-72
2023/12/20 09:09:52;;;;;;;168.73;49.30;;;;;;;;;;4925510;29;20673;-73
2023/12/20 09:12:19;;;;;;;153.77;48.00;;;;;;;;;;4925324;29;20316;-73
2023/12/20 09:14:44;;;;;;;163.03;48.40;;;;;;;;;;4925620;29;20964;-72
2023/12/20 09:17:11;;;;;;;177.30;50.27;;;;;;;;;;4908702;29;20222;-72
2023/12/20 09:19:36;;;;;;;179.30;51.97;;;;;;;;;;4924819;29;20857;-73
2023/12/20 09:22:02;;;;;;;170.77;49.47;;;;;;;;;;4925269;29;20248;-72
2023/12/20 09:24:27;;;;;;;181.60;52.27;;;;;;;;;;4908896;29;20279;-71
2023/12/20 09:26:52;;;;;;;178.83;50.07;;;;;;;;;;4925071;29;20288;-71
2023/12/20 09:29:18;;;;;;;179.10;51.73;;;;;;;;;;4924805;29;20217;-73
2023/12/20 09:31:46;;;;;;;183.63;54.13;;;;;;;;;;4909188;29;20270;-73
2023/12/20 09:34:11;;;;;;;168.63;50.73;;;;;;;;;;4914241;29;20701;-73
2023/12/20 09:36:38;;;;;;;171.67;52.03;;;;;;;;;;4923659;29;20923;-73
2023/12/20 09:39:04;;;;;;;169.60;49.73;;;;;;;;;;4909136;29;20228;-74
2023/12/20 09:41:30;;;;;;;177.50;50.93;;;;;;;;;;4924783;29;20229;-74
2023/12/20 09:43:56;;;;;;;163.73;48.47;;;;;;;;;;4926108;29;20222;-74
2023/12/20 09:46:21;;;;;;;160.20;48.00;;;;;;;;;;4925029;29;20221;-74
2023/12/20 09:48:47;;;;;;;179.50;57.73;;;;;;;;;;4925129;29;20687;-73
2023/12/20 09:51:12;;;;;;;151.47;44.67;;;;;;;;;;4924576;29;20221;-74
2023/12/20 09:53:37;;;;;;;153.07;44.90;;;;;;;;;;4924317;29;20292;-74
2023/12/20 09:56:03;;;;;;;122.97;40.57;;;;;;;;;;4925025;29;20226;-75
2023/12/20 09:58:28;;;;;;;145.40;41.90;;;;;;;;;;4924131;29;20225;-74
2023/12/20 10:00:54;;;;;;;158.33;47.30;;;;;;;;;;4908771;29;20754;-75
2023/12/20 10:03:20;;;;;;;169.93;49.50;;;;;;;;;;4908199;29;20225;-74
2023/12/20 10:05:45;;;;;;;155.07;44.33;;;;;;;;;;4924276;29;20758;-74
2023/12/20 10:08:11;;;;;;;147.30;42.33;;;;;;;;;;4924820;29;20256;-75
2023/12/20 10:10:36;;;;;;;139.60;42.43;;;;;;;;;;4924636;29;20736;-74
2023/12/20 10:13:05;;;;;;;212.80;74.53;;;;;;;;;;4924418;29;20267;-74
2023/12/20 10:15:32;;;;;;;226.83;69.23;;;;;;;;;;4923993;29;20240;-74
2023/12/20 10:17:58;;;;;;;157.57;46.77;;;;;;;;;;4922965;29;20233;-74
2023/12/20 10:20:23;;;;;;;170.03;50.27;;;;;;;;;;4925628;29;20225;-74
2023/12/20 10:22:49;;;;;;;152.03;44.60;;;;;;;;;;4908575;29;20233;-74
2023/12/20 10:25:14;;;;;;;157.27;43.83;;;;;;;;;;4925429;29;20252;-75
2023/12/20 10:27:40;;;;;;;143.50;44.07;;;;;;;;;;4905848;29;20667;-74
2023/12/20 10:30:08;;;;;;;144.90;44.47;;;;;;;;;;4924195;29;20233;-74
2023/12/20 10:32:34;;;;;;;158.43;45.80;;;;;;;;;;4924918;29;20655;-75
2023/12/20 10:34:59;;;;;;;150.20;45.27;;;;;;;;;;4923539;29;20244;-74
2023/12/20 10:37:24;;;;;;;159.63;45.83;;;;;;;;;;4923398;29;20229;-74
2023/12/20 10:39:51;;;;;;;162.67;46.37;;;;;;;;;;4924584;29;20315;-74
2023/12/20 10:42:17;;;;;;;160.27;47.10;;;;;;;;;;4925735;29;20262;-74
2023/12/20 10:44:42;;;;;;;165.70;47.43;;;;;;;;;;4923421;29;20233;-74
2023/12/20 10:47:08;;;;;;;167.80;47.33;;;;;;;;;;4908825;29;20280;-74
2023/12/20 10:49:34;;;;;;;183.20;51.30;;;;;;;;;;4923814;29;20995;-74
2023/12/20 10:51:59;;;;;;;179.73;51.93;;;;;;;;;;4923953;29;20217;-74
2023/12/20 10:54:25;;;;;;;208.20;58.73;;;;;;;;;;4924733;29;20262;-74
2023/12/20 10:56:50;;;;;;;181.27;51.53;;;;;;;;;;4923445;29;20235;-74
2023/12/20 10:59:15;;;;;;;212.97;58.43;;;;;;;;;;4921195;29;20217;-74
2023/12/20 11:01:41;;;;;;;182.90;49.53;;;;;;;;;;4923631;29;20308;-74
2023/12/20 11:04:07;;;;;;;189.43;54.13;;;;;;;;;;4908010;29;20244;-74
2023/12/20 11:06:32;;;;;;;182.80;53.30;;;;;;;;;;4923554;29;20271;-74
2023/12/20 11:09:12;;;;;;;180.67;53.80;;;;;;;;;;4923268;29;20285;-74
2023/12/20 11:11:56;;;;;;;180.47;51.23;;;;;;;;;;4923473;29;20229;-74
2023/12/20 11:14:28;;;;;;;177.67;54.40;;;;;;;;;;4922321;29;20344;-74
2023/12/20 11:17:07;;;;;;;177.57;53.60;;;;;;;;;;4904788;29;20277;-74
2023/12/20 11:19:32;;;;;;;180.00;53.13;;;;;;;;;;4906142;29;20264;-72
2023/12/20 11:21:58;;;;;;;194.20;55.17;;;;;;;;;;4907967;29;20253;-73
2023/12/20 11:24:24;;;;;;;190.47;54.13;;;;;;;;;;4923953;29;20252;-72
2023/12/20 11:26:50;;;;;;;186.33;55.57;;;;;;;;;;4923148;29;20222;-72
2023/12/20 11:29:31;;;;;;;200.43;56.43;;;;;;;;;;4923920;29;20272;-72
2023/12/20 11:31:57;;;;;;;197.77;56.57;;;;;;;;;;4928524;29;20324;-72
2023/12/20 11:34:22;;;;;;;208.30;59.17;;;;;;;;;;4926372;29;20329;-72
2023/12/20 11:36:48;;;;;;;203.80;60.00;;;;;;;;;;4926576;29;20249;-71
2023/12/20 11:39:18;;;;;;;202.17;59.10;;;;;;;;;;4927587;29;20609;-71
2023/12/20 11:41:44;;;;;;;206.43;60.60;;;;;;;;;;4926437;29;20270;-73
2023/12/20 11:44:11;;;;;;;206.43;61.67;;;;;;;;;;4910920;29;20229;-72
2023/12/20 11:46:36;;;;;;;190.83;60.80;;;;;;;;;;4910289;29;20252;-71
2023/12/20 11:49:02;;;;;;;201.70;60.23;;;;;;;;;;4907848;29;20336;-72
2023/12/20 11:51:28;;;;;;;205.43;62.87;;;;;;;;;;4926321;29;20229;-73
2023/12/20 11:53:53;;;;;;;195.07;59.97;;;;;;;;;;4906899;29;20289;-71
2023/12/20 11:56:18;;;;;;;192.43;59.43;;;;;;;;;;4923916;29;20723;-72
2023/12/20 11:58:44;;;;;;;190.00;59.13;;;;;;;;;;4927034;29;20751;-72
2023/12/20 12:01:09;;;;;;;196.73;60.30;;;;;;;;;;4926512;29;20236;-73
2023/12/20 12:03:34;;;;;;;185.70;55.73;;;;;;;;;;4910510;29;20290;-73
2023/12/20 12:06:00;;;;;;;192.17;58.63;;;;;;;;;;4911323;29;20244;-73
2023/12/20 12:08:26;;;;;;;184.40;57.90;;;;;;;;;;4925809;29;20230;-72
2023/12/20 12:10:51;;;;;;;175.87;54.97;;;;;;;;;;4927604;29;20232;-74
2023/12/20 12:13:17;;;;;;;160.53;51.03;;;;;;;;;;4932171;29;21265;-73
2023/12/20 12:15:42;;;;;;;163.50;51.77;;;;;;;;;;4937716;29;20292;-74
2023/12/20 12:18:07;;;;;;;164.50;51.03;;;;;;;;;;4929746;29;20229;-74
2023/12/20 12:20:33;;;;;;;197.07;63.10;;;;;;;;;;4926628;29;20237;-74
2023/12/20 12:22:59;;;;;;;179.13;55.90;;;;;;;;;;4907406;29;20230;-73
2023/12/20 12:25:25;;;;;;;171.10;52.00;;;;;;;;;;4925173;29;20265;-73
2023/12/20 12:27:50;;;;;;;153.57;48.50;;;;;;;;;;4910386;29;20312;-73
2023/12/20 12:30:18;;;;;;;143.43;46.90;;;;;;;;;;4910592;29;20225;-73
2023/12/20 12:32:43;;;;;;;159.70;49.47;;;;;;;;;;4927333;29;20228;-73
2023/12/20 12:35:09;;;;;;;154.50;46.70;;;;;;;;;;4925555;29;20245;-74
2023/12/20 12:37:35;;;;;;;155.50;49.37;;;;;;;;;;4925588;29;20288;-73
2023/12/20 12:40:01;;;;;;;177.27;52.17;;;;;;;;;;4925469;29;20245;-72
2023/12/20 12:42:28;;;;;;;173.53;54.97;;;;;;;;;;4927181;29;20336;-74
2023/12/20 12:44:54;;;;;;;198.50;57.60;;;;;;;;;;4927216;29;20232;-72
2023/12/20 12:47:19;;;;;;;209.27;56.27;;;;;;;;;;4925558;29;20222;-72
2023/12/20 12:49:45;;;;;;;199.67;56.67;;;;;;;;;;4927097;29;20253;-72
2023/12/20 12:52:10;;;;;;;197.17;55.50;;;;;;;;;;4925328;29;20288;-72
2023/12/20 12:54:36;;;;;;;217.43;59.60;;;;;;;;;;4909609;29;20561;-72
2023/12/20 12:57:01;;;;;;;218.50;61.27;;;;;;;;;;4927103;29;20222;-72
2023/12/20 12:59:27;;;;;;;227.30;63.90;;;;;;;;;;4909504;29;20240;-72
2023/12/20 13:01:53;;;;;;;227.63;61.03;;;;;;;;;;4909948;29;20821;-72
2023/12/20 13:04:18;;;;;;;205.17;57.03;;;;;;;;;;4925640;29;20288;-73
2023/12/20 13:06:43;;;;;;;208.73;56.77;;;;;;;;;;4908930;29;20264;-72
2023/12/20 13:09:09;;;;;;;202.83;54.73;;;;;;;;;;4909633;29;20245;-72
2023/12/20 13:11:35;;;;;;;196.57;53.30;;;;;;;;;;4924919;29;20226;-71
2023/12/20 13:14:00;;;;;;;183.70;52.30;;;;;;;;;;4926602;29;20237;-72
2023/12/20 13:16:26;;;;;;;168.07;49.57;;;;;;;;;;4926326;29;20984;-71
2023/12/20 13:18:51;;;;;;;168.37;49.37;;;;;;;;;;4925513;29;20777;-72
2023/12/20 13:21:16;;;;;;;175.07;50.80;;;;;;;;;;4926133;29;20245;-73
2023/12/20 13:23:42;;;;;;;179.47;51.73;;;;;;;;;;4925796;29;20228;-72
2023/12/20 13:26:07;;;;;;;216.27;61.13;;;;;;;;;;4909350;29;20314;-73
2023/12/20 13:28:33;;;;;;;199.97;58.33;;;;;;;;;;4924652;29;20225;-71
2023/12/20 13:30:58;;;;;;;184.20;53.53;;;;;;;;;;4909408;29;20296;-72
2023/12/20 13:33:23;;;;;;;216.00;61.63;;;;;;;;;;4926034;29;20291;-74
2023/12/20 13:35:49;;;;;;;192.67;55.53;;;;;;;;;;4924889;29;20245;-73
2023/12/20 13:38:14;;;;;;;180.37;52.43;;;;;;;;;;4925116;29;20225;-74
2023/12/20 13:40:39;;;;;;;194.13;56.50;;;;;;;;;;4924494;29;20229;-73
2023/12/20 13:43:05;;;;;;;185.50;54.97;;;;;;;;;;4909847;29;20231;-74
2023/12/20 13:45:31;;;;;;;182.97;53.33;;;;;;;;;;4924690;29;20960;-73
2023/12/20 13:47:56;;;;;;;186.93;57.23;;;;;;;;;;4905857;29;20226;-73
2023/12/20 13:50:22;;;;;;;183.40;56.40;;;;;;;;;;4906136;29;20238;-73
2023/12/20 13:52:47;;;;;;;180.90;52.20;;;;;;;;;;4925256;29;20230;-74
2023/12/20 13:55:13;;;;;;;171.07;47.50;;;;;;;;;;4908799;29;20292;-74